Time;durP1;ratioP1;P1;durP2;ratioP2;P2;SDS_P1;SDS_P2;PMS_P1;PMS_P2;Temp;Humidity;BMP_temperature;BMP_pressure;BME280_temperature;BME280_humidity;BME280_pressure;Samples;Min_cycle;Max_cycle;Signal;HPM_P1;HPM_P2
2021/08/24 00:01:02;;;;;;;2.47;0.93;;;;;;;16.97;86.85;102045.25;4972627;28;20515;-65
2021/08/24 00:03:27;;;;;;;1.30;0.80;;;;;;;17.03;86.77;102046.50;4972028;28;20483;-66
2021/08/24 00:05:52;;;;;;;1.00;0.90;;;;;;;16.95;87.35;102054.91;4967550;28;20064;-66
2021/08/24 00:08:18;;;;;;;2.15;1.00;;;;;;;16.93;87.31;102052.56;4970835;28;20039;-66
2021/08/24 00:10:47;;;;;;;1.45;1.17;;;;;;;16.95;87.47;102046.75;4970788;28;20058;-66
2021/08/24 00:13:13;;;;;;;1.45;0.90;;;;;;;17.05;87.37;102057.03;4971323;28;20042;-66
2021/08/24 00:15:40;;;;;;;1.80;1.23;;;;;;;17.06;86.84;102051.22;4972537;28;20102;-67
2021/08/24 00:18:06;;;;;;;1.98;1.10;;;;;;;17.06;86.94;102053.16;4971788;28;20050;-66
2021/08/24 00:20:32;;;;;;;1.10;1.00;;;;;;;16.99;86.99;102050.31;4972101;28;20031;-66
2021/08/24 00:23:01;;;;;;;1.20;0.90;;;;;;;17.01;87.38;102045.31;4959801;28;20511;-66
2021/08/24 00:25:27;;;;;;;1.10;0.80;;;;;;;16.94;87.78;102054.13;4970494;28;20027;-66
2021/08/24 00:27:52;;;;;;;2.22;1.10;;;;;;;16.82;87.75;102053.53;4972362;28;20046;-65
2021/08/24 00:30:18;;;;;;;1.63;1.15;;;;;;;16.89;87.81;102065.31;4972236;28;20058;-67
2021/08/24 00:32:43;;;;;;;1.30;1.10;;;;;;;16.93;87.81;102057.22;4966929;28;20035;-65
2021/08/24 00:35:09;;;;;;;2.03;1.10;;;;;;;16.88;87.59;102058.28;4981221;28;20034;-66
2021/08/24 00:37:34;;;;;;;4.70;1.20;;;;;;;16.80;88.03;102056.59;4970983;28;20503;-66
2021/08/24 00:40:00;;;;;;;1.88;1.10;;;;;;;16.76;88.44;102061.19;4971554;28;20041;-66
2021/08/24 00:42:25;;;;;;;1.65;0.90;;;;;;;16.83;88.14;102065.97;4970430;28;20042;-66
2021/08/24 00:44:51;;;;;;;1.50;1.00;;;;;;;16.66;89.22;102061.81;4972995;28;20038;-66
2021/08/24 00:47:20;;;;;;;1.30;0.93;;;;;;;16.73;88.38;102075.53;4971747;28;20031;-67
2021/08/24 00:49:47;;;;;;;1.55;1.08;;;;;;;16.69;88.80;102073.88;4971763;28;20049;-65
2021/08/24 00:52:18;;;;;;;1.92;1.08;;;;;;;16.69;88.61;102085.56;4970225;28;20046;-66
2021/08/24 00:54:45;;;;;;;1.70;1.20;;;;;;;16.66;88.73;102071.88;4970071;28;20031;-66
2021/08/24 00:57:15;;;;;;;1.42;0.90;;;;;;;16.54;89.45;102082.94;4970536;28;20097;-67
2021/08/24 00:59:44;;;;;;;1.33;0.82;;;;;;;16.61;89.52;102080.31;4971024;28;20093;-66
2021/08/24 01:02:10;;;;;;;1.67;1.00;;;;;;;16.61;89.23;102074.88;4970009;28;20072;-66
2021/08/24 01:04:37;;;;;;;1.55;1.10;;;;;;;16.48;90.03;102076.16;4970367;28;20045;-66
2021/08/24 01:07:29;;;;;;;2.92;1.00;;;;;;;16.48;90.25;102079.72;4974698;28;20114;-66
2021/08/24 01:10:24;;;;;;;1.05;0.90;;;;;;;16.50;89.99;102082.06;4968740;28;20042;-66
2021/08/24 01:12:55;;;;;;;2.17;1.15;;;;;;;16.40;90.21;102077.16;4973965;28;20050;-66
2021/08/24 01:15:41;;;;;;;1.73;0.90;;;;;;;16.39;90.27;102081.84;4974858;28;20387;-65
2021/08/24 01:18:09;;;;;;;1.30;1.00;;;;;;;16.14;92.11;102078.59;4970267;28;20066;-66
2021/08/24 01:20:40;;;;;;;1.48;0.90;;;;;;;15.98;92.81;102083.31;4971653;28;20066;-67
2021/08/24 01:23:29;;;;;;;1.50;0.98;;;;;;;15.92;92.92;102082.03;4985017;28;20035;-65
2021/08/24 01:26:15;;;;;;;1.52;0.70;;;;;;;16.05;92.99;102078.03;4971317;28;20096;-66
2021/08/24 01:29:11;;;;;;;5.80;0.90;;;;;;;16.13;91.79;102077.03;4970804;28;20054;-66
2021/08/24 01:32:14;;;;;;;1.75;1.13;;;;;;;16.13;91.57;102082.47;4969181;28;20483;-65
2021/08/24 01:34:55;;;;;;;1.48;1.00;;;;;;;16.10;92.04;102085.13;4971779;28;20049;-65
2021/08/24 01:37:43;;;;;;;3.03;0.70;;;;;;;15.73;93.34;102087.44;4967087;28;20122;-66
2021/08/24 01:40:13;;;;;;;1.17;0.80;;;;;;;15.66;93.88;102087.25;4971588;28;20043;-66
2021/08/24 01:42:41;;;;;;;1.10;0.90;;;;;;;15.71;94.31;102084.28;4984983;28;20558;-66
2021/08/24 01:45:16;;;;;;;1.55;0.93;;;;;;;15.73;93.84;102089.34;4970849;28;20057;-66
2021/08/24 01:48:08;;;;;;;1.65;0.88;;;;;;;15.69;93.91;102092.00;4969880;28;20046;-67
2021/08/24 01:50:47;;;;;;;1.65;0.98;;;;;;;15.45;94.85;102096.84;4971877;28;20042;-65
2021/08/24 01:53:29;;;;;;;1.25;0.68;;;;;;;15.52;95.31;102100.53;4985585;23;20019;-70
2021/08/24 01:56:10;;;;;;;1.52;1.00;;;;;;;15.47;95.37;102089.13;4970744;28;20059;-68
2021/08/24 01:58:44;;;;;;;1.52;1.05;;;;;;;15.56;95.07;102097.88;4975424;28;20046;-68
2021/08/24 02:01:13;;;;;;;1.35;1.10;;;;;;;15.64;94.87;102089.53;4950528;28;20042;-67
2021/08/24 02:03:46;;;;;;;2.15;1.10;;;;;;;15.71;94.45;102100.56;4960536;28;20121;-67
2021/08/24 02:06:26;;;;;;;2.28;1.10;;;;;;;15.75;93.95;102103.38;4993123;28;20041;-67
2021/08/24 02:08:56;;;;;;;1.37;0.90;;;;;;;15.78;93.91;102089.84;4994544;28;20411;-69
2021/08/24 02:11:22;;;;;;;2.10;0.98;;;;;;;15.81;93.66;102094.59;4976236;28;20062;-68
2021/08/24 02:13:50;;;;;;;2.13;0.80;;;;;;;15.82;93.74;102100.81;4983367;28;20031;-68
2021/08/24 02:16:20;;;;;;;1.88;1.10;;;;;;;15.83;94.01;102092.28;4991598;28;20042;-66
2021/08/24 02:18:59;;;;;;;2.28;1.20;;;;;;;15.79;94.34;102096.88;4994148;28;20030;-68
2021/08/24 02:21:32;;;;;;;1.05;0.85;;;;;;;15.79;94.35;102096.88;4994118;28;20091;-69
2021/08/24 02:24:02;;;;;;;1.42;1.08;;;;;;;15.80;94.69;102095.72;4987256;28;20037;-67
2021/08/24 02:26:30;;;;;;;1.67;0.90;;;;;;;15.80;94.82;102087.56;4994136;28;20038;-67
2021/08/24 02:28:58;;;;;;;1.58;0.90;;;;;;;15.83;94.78;102089.56;4994236;28;20042;-67
2021/08/24 02:32:02;;;;;;;1.48;0.95;;;;;;;15.81;94.68;102083.72;4987449;28;20081;-67
2021/08/24 02:34:34;;;;;;;1.15;0.77;;;;;;;15.84;94.38;102093.88;4987694;28;20550;-66
2021/08/24 02:37:09;;;;;;;1.55;1.00;;;;;;;15.85;94.41;102090.00;4994169;28;20060;-67
2021/08/24 02:40:21;;;;;;;1.42;0.90;;;;;;;15.64;95.42;102083.34;4988604;28;20066;-68
2021/08/24 02:43:08;;;;;;;3.38;0.90;;;;;;;15.58;95.63;102092.88;4967927;28;20425;-67
2021/08/24 02:45:39;;;;;;;1.90;0.80;;;;;;;15.67;95.44;102085.34;4988635;28;20431;-67
2021/08/24 02:48:08;;;;;;;;;;;;;;;15.58;95.50;102090.94;4985115;28;20097;-66
2021/08/24 02:50:34;;;;;;;2.67;1.10;;;;;;;15.61;95.52;102089.47;4992022;28;20294;-67
2021/08/24 02:53:00;;;;;;;3.08;1.10;;;;;;;15.63;95.44;102090.69;4975873;28;20034;-67
2021/08/24 02:55:26;;;;;;;1.42;0.90;;;;;;;15.62;95.64;102091.81;4991150;28;20026;-67
2021/08/24 02:57:51;;;;;;;1.60;1.13;;;;;;;15.65;95.27;102090.31;4993376;28;20410;-67
2021/08/24 03:00:17;;;;;;;0.93;0.80;;;;;;;15.65;95.23;102091.13;4993128;28;20045;-67
2021/08/24 03:02:43;;;;;;;1.23;0.80;;;;;;;15.66;95.18;102092.69;4974673;28;20109;-67
2021/08/24 03:05:09;;;;;;;1.35;0.80;;;;;;;15.63;95.13;102104.25;4983432;28;20042;-68
2021/08/24 03:07:37;;;;;;;1.30;0.63;;;;;;;15.64;95.08;102105.81;4993559;28;20051;-67
2021/08/24 03:10:10;;;;;;;1.55;0.93;;;;;;;15.61;94.79;102106.53;4993481;28;20125;-67
2021/08/24 03:12:42;;;;;;;1.38;0.82;;;;;;;15.58;94.97;102099.09;4986481;28;20478;-67
2021/08/24 03:15:20;;;;;;;1.77;0.90;;;;;;;15.34;96.08;102104.69;4976067;28;20092;-68
2021/08/24 03:17:58;;;;;;;2.17;0.80;;;;;;;15.40;95.67;102111.44;4993594;28;20394;-67
2021/08/24 03:20:29;;;;;;;1.08;0.80;;;;;;;15.26;96.56;102108.38;4975693;28;20034;-67
2021/08/24 03:22:56;;;;;;;1.02;0.80;;;;;;;15.23;96.53;102114.50;4981561;28;20069;-67
2021/08/24 03:25:23;;;;;;;1.60;0.88;;;;;;;15.14;96.54;102117.38;4993212;28;20030;-67
2021/08/24 03:27:52;;;;;;;1.35;0.90;;;;;;;15.19;96.69;102116.34;4993043;28;20126;-67
2021/08/24 03:30:19;;;;;;;1.27;0.88;;;;;;;15.22;96.39;102111.00;4986893;28;20031;-68
2021/08/24 03:32:46;;;;;;;2.22;1.08;;;;;;;15.20;95.39;102118.72;4983086;28;20071;-68
2021/08/24 03:35:12;;;;;;;1.67;0.90;;;;;;;15.20;95.57;102117.91;4975484;28;20070;-68
2021/08/24 03:37:38;;;;;;;2.83;0.88;;;;;;;15.06;96.18;102117.56;4978655;28;20070;-67
2021/08/24 03:40:05;;;;;;;1.63;1.05;;;;;;;15.01;96.34;102115.09;4974226;28;20026;-68
2021/08/24 03:42:31;;;;;;;3.17;1.02;;;;;;;15.09;96.34;102116.88;4959446;28;20037;-67
2021/08/24 03:44:56;;;;;;;1.35;1.02;;;;;;;14.74;97.00;102118.63;4978192;28;20562;-70
2021/08/24 03:47:21;;;;;;;1.83;0.90;;;;;;;14.59;98.58;102119.38;4977834;28;20063;-68
2021/08/24 03:49:47;;;;;;;1.50;1.00;;;;;;;14.73;97.88;102125.22;4973728;28;20518;-66
2021/08/24 03:52:12;;;;;;;1.65;1.05;;;;;;;14.79;97.69;102123.81;4973876;28;20034;-67
2021/08/24 03:54:38;;;;;;;1.80;1.10;;;;;;;14.89;96.87;102118.66;4971858;28;20046;-69
2021/08/24 03:57:04;;;;;;;2.17;1.05;;;;;;;14.95;96.29;102132.75;4986120;28;20018;-67
2021/08/24 03:59:29;;;;;;;1.92;1.08;;;;;;;14.99;96.23;102125.50;4992617;28;20117;-67
2021/08/24 04:01:54;;;;;;;1.55;1.00;;;;;;;15.03;95.79;102123.69;4988180;28;20066;-67
2021/08/24 04:04:20;;;;;;;1.58;0.90;;;;;;;15.00;95.42;102127.09;4970372;28;20474;-67
2021/08/24 04:06:45;;;;;;;1.25;1.08;;;;;;;14.91;95.59;102126.44;4977369;28;20495;-66
2021/08/24 04:09:11;;;;;;;1.70;1.20;;;;;;;14.88;95.96;102127.16;4968241;28;21577;-67
2021/08/24 04:11:36;;;;;;;1.70;1.17;;;;;;;14.85;95.80;102134.06;4972291;28;20041;-68
2021/08/24 04:14:02;;;;;;;1.73;1.30;;;;;;;14.85;95.71;102135.97;4985305;28;20110;-67
2021/08/24 04:16:27;;;;;;;1.95;0.98;;;;;;;14.88;95.63;102140.72;4991652;28;20406;-66
2021/08/24 04:18:53;;;;;;;1.33;0.90;;;;;;;14.78;95.82;102146.63;4972680;28;20053;-67
2021/08/24 04:21:19;;;;;;;1.70;1.17;;;;;;;14.85;95.67;102142.19;4988552;28;20641;-66
2021/08/24 04:23:47;;;;;;;1.17;0.88;;;;;;;14.81;95.65;102154.06;4966900;28;20450;-69
2021/08/24 04:26:14;;;;;;;4.30;1.02;;;;;;;14.77;95.70;102153.97;4991042;28;20038;-70
2021/08/24 04:28:40;;;;;;;2.22;1.05;;;;;;;14.68;95.92;102152.56;4990826;28;20031;-68
2021/08/24 04:31:09;;;;;;;1.38;1.00;;;;;;;14.63;96.15;102152.81;4973178;28;20034;-67
2021/08/24 04:33:35;;;;;;;2.80;1.00;;;;;;;14.50;97.73;102159.41;4991124;28;20035;-67
2021/08/24 04:36:02;;;;;;;2.33;1.05;;;;;;;14.52;97.84;102157.91;4993769;28;20036;-67
2021/08/24 04:38:28;;;;;;;1.60;1.00;;;;;;;14.52;97.38;102157.16;4973582;28;20117;-68
2021/08/24 04:40:54;;;;;;;1.50;1.00;;;;;;;14.63;96.99;102159.03;4991003;28;20595;-68
2021/08/24 04:43:20;;;;;;;2.28;1.15;;;;;;;14.43;98.08;102157.28;4985191;28;20121;-67
2021/08/24 04:45:45;;;;;;;1.95;1.25;;;;;;;14.51;98.15;102161.78;4981326;28;20113;-68
2021/08/24 04:48:11;;;;;;;2.33;1.20;;;;;;;14.58;97.65;102158.47;4979238;28;20471;-68
2021/08/24 04:50:37;;;;;;;1.58;1.20;;;;;;;14.65;97.74;102161.41;4975837;28;20038;-69
2021/08/24 04:53:03;;;;;;;1.40;1.08;;;;;;;14.70;97.62;102161.94;4983830;28;21629;-70
2021/08/24 04:55:29;;;;;;;2.53;1.35;;;;;;;14.74;97.49;102157.41;4970067;28;20118;-68
2021/08/24 04:57:54;;;;;;;1.50;1.23;;;;;;;14.77;97.51;102159.41;4979785;28;20125;-67
2021/08/24 05:00:19;;;;;;;2.15;1.20;;;;;;;14.77;97.80;102161.34;4986578;28;20081;-68
2021/08/24 05:02:45;;;;;;;2.10;1.40;;;;;;;14.71;97.86;102166.22;4990641;28;20038;-67
2021/08/24 05:05:11;;;;;;;4.07;1.98;;;;;;;14.81;98.19;102164.94;4989696;28;20690;-67
2021/08/24 05:07:36;;;;;;;2.88;1.40;;;;;;;14.89;97.90;102174.84;4986727;28;20149;-67
2021/08/24 05:10:03;;;;;;;2.58;1.80;;;;;;;14.87;98.37;102175.19;4986280;28;20118;-69
2021/08/24 05:12:30;;;;;;;2.72;1.83;;;;;;;14.95;98.23;102170.75;4989675;28;20038;-68
2021/08/24 05:14:56;;;;;;;2.92;1.80;;;;;;;14.98;98.58;102170.84;4982032;28;20093;-69
2021/08/24 05:17:22;;;;;;;4.45;2.10;;;;;;;15.02;99.20;102170.97;4979581;28;20026;-68
2021/08/24 05:19:47;;;;;;;3.83;2.35;;;;;;;15.08;99.16;102174.97;4981853;28;20062;-68
2021/08/24 05:22:13;;;;;;;3.72;2.13;;;;;;;15.02;99.99;102176.38;4988843;28;20026;-67
2021/08/24 05:24:39;;;;;;;2.55;1.67;;;;;;;15.07;99.78;102173.41;4976101;28;20034;-67
2021/08/24 05:27:06;;;;;;;4.18;2.10;;;;;;;15.14;100.00;102179.81;4959192;28;20049;-67
2021/08/24 05:29:31;;;;;;;4.95;1.92;;;;;;;15.08;100.00;102189.34;4979045;28;20049;-69
2021/08/24 05:31:57;;;;;;;3.30;2.05;;;;;;;15.14;100.00;102182.53;4977697;28;20065;-68
2021/08/24 05:34:22;;;;;;;3.65;1.85;;;;;;;15.22;100.00;102188.91;4986844;28;20114;-69
2021/08/24 05:36:48;;;;;;;2.03;1.63;;;;;;;15.29;100.00;102189.13;4984706;28;21907;-70
2021/08/24 05:39:13;;;;;;;4.68;1.60;;;;;;;15.27;100.00;102196.81;4983936;28;20027;-68
2021/08/24 05:41:39;;;;;;;2.55;1.60;;;;;;;15.34;100.00;102200.50;4983712;28;20113;-69
2021/08/24 05:44:06;;;;;;;7.80;2.03;;;;;;;15.42;100.00;102198.00;4988872;28;20030;-69
2021/08/24 05:46:32;;;;;;;3.00;1.73;;;;;;;15.44;100.00;102193.81;4991086;28;20046;-70
2021/08/24 05:48:57;;;;;;;1.75;1.58;;;;;;;15.46;100.00;102199.69;4990648;28;20061;-69
2021/08/24 05:51:23;;;;;;;1.88;1.20;;;;;;;15.50;100.00;102208.72;4968871;28;20394;-69
2021/08/24 05:53:50;;;;;;;2.55;1.58;;;;;;;15.46;100.00;102207.81;4975009;28;20023;-69
2021/08/24 05:56:22;;;;;;;3.30;1.70;;;;;;;15.56;100.00;102211.94;4972610;28;20131;-68
2021/08/24 05:58:49;;;;;;;3.25;1.73;;;;;;;15.67;100.00;102213.00;4987586;28;20533;-68
2021/08/24 06:01:20;;;;;;;2.50;1.70;;;;;;;15.77;100.00;102213.25;4957537;28;20041;-68
2021/08/24 06:03:45;;;;;;;3.75;1.75;;;;;;;15.85;100.00;102217.72;4983487;28;20070;-69
2021/08/24 06:06:23;;;;;;;2.63;1.42;;;;;;;15.92;100.00;102211.66;4983403;28;20045;-68
2021/08/24 06:08:49;;;;;;;3.33;1.75;;;;;;;16.06;100.00;102212.00;4989742;28;20031;-69
2021/08/24 06:11:36;;;;;;;2.72;1.60;;;;;;;16.12;100.00;102216.03;4981828;28;20041;-68
2021/08/24 06:14:04;;;;;;;3.15;1.70;;;;;;;16.28;100.00;102216.78;4985976;28;20434;-69
2021/08/24 06:16:30;;;;;;;3.10;1.70;;;;;;;16.27;100.00;102213.28;4986182;28;20037;-68
2021/08/24 06:18:56;;;;;;;2.70;1.52;;;;;;;16.30;100.00;102209.06;4979496;28;20037;-69
2021/08/24 06:21:22;;;;;;;2.13;1.15;;;;;;;16.36;100.00;102210.34;4980076;28;20038;-68
2021/08/24 06:23:48;;;;;;;2.65;1.42;;;;;;;16.48;100.00;102214.88;4963579;28;20027;-69
2021/08/24 06:26:15;;;;;;;1.80;1.20;;;;;;;16.52;100.00;102204.91;4980765;28;20058;-68
2021/08/24 06:28:40;;;;;;;2.20;1.25;;;;;;;16.61;100.00;102208.97;4972522;28;20038;-69
2021/08/24 06:31:06;;;;;;;2.35;1.27;;;;;;;16.79;99.65;102212.88;4981215;28;20120;-68
2021/08/24 06:33:36;;;;;;;1.50;1.25;;;;;;;17.02;98.82;102213.72;4984184;28;20114;-68
2021/08/24 06:36:03;;;;;;;2.60;1.20;;;;;;;17.26;98.21;102215.34;4978589;28;20034;-68
2021/08/24 06:38:29;;;;;;;1.83;1.20;;;;;;;17.48;97.65;102219.22;4989490;28;20621;-68
2021/08/24 06:40:55;;;;;;;3.58;1.30;;;;;;;17.64;97.36;102225.34;4984076;28;20049;-69
2021/08/24 06:43:21;;;;;;;3.35;1.20;;;;;;;17.77;96.96;102221.28;4983816;28;20030;-69
2021/08/24 06:45:46;;;;;;;2.38;1.02;;;;;;;17.90;96.16;102226.19;4988954;28;20518;-68
2021/08/24 06:48:12;;;;;;;2.45;1.10;;;;;;;18.04;96.28;102222.88;4978302;28;20065;-69
2021/08/24 06:50:37;;;;;;;1.30;0.90;;;;;;;18.20;96.03;102233.63;4989738;28;20113;-68
2021/08/24 06:53:03;;;;;;;2.65;1.17;;;;;;;18.30;94.86;102233.81;4989127;28;20030;-68
2021/08/24 06:55:31;;;;;;;2.45;1.10;;;;;;;18.49;94.09;102241.09;5000359;28;20092;-68
2021/08/24 06:57:58;;;;;;;1.65;0.82;;;;;;;18.70;92.41;102233.19;4972707;28;20054;-68
2021/08/24 07:00:26;;;;;;;0.65;0.57;;;;;;;18.84;90.50;102236.09;4990456;28;20038;-68
2021/08/24 07:02:53;;;;;;;1.75;0.93;;;;;;;19.00;90.10;102239.44;4991768;28;20069;-69
2021/08/24 07:05:25;;;;;;;1.98;0.80;;;;;;;19.18;89.12;102245.09;4990222;28;20042;-68
2021/08/24 07:07:50;;;;;;;1.30;0.68;;;;;;;19.20;88.55;102242.78;4975829;28;20551;-68
2021/08/24 07:10:22;;;;;;;1.10;0.63;;;;;;;19.27;85.29;102246.38;4991973;28;20125;-69
2021/08/24 07:12:47;;;;;;;1.15;0.60;;;;;;;19.35;85.01;102248.06;4988438;28;20039;-67
2021/08/24 07:15:16;;;;;;;0.68;0.47;;;;;;;19.43;83.42;102255.16;4984506;28;20030;-68
2021/08/24 07:17:41;;;;;;;2.35;0.70;;;;;;;19.50;84.24;102262.63;4980516;28;20045;-68
2021/08/24 07:20:11;;;;;;;2.47;0.43;;;;;;;19.55;85.07;102265.81;4979445;28;20042;-68
2021/08/24 07:22:37;;;;;;;0.80;0.50;;;;;;;19.58;83.75;102270.53;4987030;28;20517;-68
2021/08/24 07:25:06;;;;;;;1.10;0.50;;;;;;;19.69;82.74;102263.22;4992948;28;20023;-70
2021/08/24 07:27:31;;;;;;;1.25;0.45;;;;;;;19.81;82.92;102264.88;4992747;28;20042;-69
2021/08/24 07:29:57;;;;;;;0.75;0.40;;;;;;;19.92;80.72;102268.47;4991746;28;20026;-69
2021/08/24 07:32:23;;;;;;;2.90;0.40;;;;;;;19.93;79.21;102264.59;4974922;28;20044;-68
2021/08/24 07:34:48;;;;;;;0.68;0.40;;;;;;;20.03;77.99;102263.91;4992179;28;20069;-68
2021/08/24 07:37:14;;;;;;;1.30;0.30;;;;;;;20.11;78.68;102272.94;4988489;28;20040;-68
2021/08/24 07:39:39;;;;;;;0.73;0.43;;;;;;;20.16;77.35;102280.78;4984876;28;20121;-69
2021/08/24 07:42:05;;;;;;;0.70;0.50;;;;;;;20.27;77.13;102281.66;4989004;28;20499;-68
2021/08/24 07:44:33;;;;;;;0.43;0.30;;;;;;;20.34;76.04;102282.50;4983895;28;20658;-68
2021/08/24 07:47:00;;;;;;;0.80;0.50;;;;;;;20.35;72.59;102275.06;4989173;28;20062;-69
2021/08/24 07:49:26;;;;;;;1.02;0.30;;;;;;;20.28;72.96;102285.97;4988121;28;20049;-68
2021/08/24 07:51:54;;;;;;;0.52;0.43;;;;;;;20.29;74.63;102287.53;4991967;28;20519;-69
2021/08/24 07:54:21;;;;;;;1.25;0.40;;;;;;;20.33;74.82;102280.16;4991184;23;20075;-67
2021/08/24 07:56:47;;;;;;;2.08;0.63;;;;;;;20.38;73.98;102286.03;4968195;28;20084;-69
2021/08/24 07:59:13;;;;;;;0.68;0.45;;;;;;;20.57;75.27;102288.53;4971268;28;20089;-69
2021/08/24 08:01:38;;;;;;;0.68;0.47;;;;;;;20.71;76.16;102285.09;4967466;28;20422;-70
2021/08/24 08:04:04;;;;;;;0.75;0.47;;;;;;;20.94;74.40;102291.06;4965792;28;20121;-70
2021/08/24 08:06:29;;;;;;;0.60;0.50;;;;;;;21.06;73.93;102301.69;4971302;28;20045;-70
2021/08/24 08:08:55;;;;;;;0.82;0.45;;;;;;;21.08;73.36;102287.63;4970516;28;20035;-70
2021/08/24 08:11:20;;;;;;;2.22;0.85;;;;;;;21.14;73.07;102294.28;4961376;28;20026;-70
2021/08/24 08:13:46;;;;;;;1.77;0.82;;;;;;;21.07;73.81;102289.56;4968615;28;20526;-70
2021/08/24 08:16:11;;;;;;;1.02;0.60;;;;;;;21.14;74.48;102294.28;4970690;28;20029;-69
2021/08/24 08:18:36;;;;;;;1.23;0.50;;;;;;;21.34;74.21;102293.56;4966763;28;20038;-69
2021/08/24 08:21:02;;;;;;;0.57;0.47;;;;;;;21.38;73.12;102296.31;4966333;28;20117;-69
2021/08/24 08:23:28;;;;;;;1.15;0.52;;;;;;;21.46;72.04;102293.22;4949088;28;20046;-70
2021/08/24 08:25:57;;;;;;;0.77;0.47;;;;;;;21.54;72.05;102291.28;4970300;28;20045;-70
2021/08/24 08:28:22;;;;;;;0.85;0.50;;;;;;;21.64;73.23;102289.72;4967936;28;20026;-69
2021/08/24 08:30:48;;;;;;;0.60;0.50;;;;;;;21.77;74.36;102299.13;4970168;28;20034;-70
2021/08/24 08:33:14;;;;;;;0.95;0.40;;;;;;;21.86;69.06;102283.88;4964769;28;20069;-70
2021/08/24 08:35:40;;;;;;;0.73;0.40;;;;;;;22.03;70.70;102296.03;4966883;28;20122;-70
2021/08/24 08:38:06;;;;;;;2.00;0.63;;;;;;;22.23;69.54;102300.75;4966160;28;20038;-68
2021/08/24 08:40:43;;;;;;;0.93;0.60;;;;;;;22.37;66.13;102297.97;4970162;28;20073;-68
2021/08/24 08:43:30;;;;;;;1.20;0.45;;;;;;;22.35;66.77;102300.34;4965312;28;20030;-70
2021/08/24 08:46:03;;;;;;;1.33;0.60;;;;;;;22.52;65.29;102290.47;4967443;28;20054;-69
2021/08/24 08:49:00;;;;;;;1.00;0.55;;;;;;;22.58;65.01;102297.19;4968402;28;20510;-70
2021/08/24 08:52:04;;;;;;;0.93;0.50;;;;;;;22.62;64.04;102303.44;4961827;28;20038;-68
2021/08/24 08:54:55;;;;;;;0.98;0.60;;;;;;;22.79;65.65;102302.59;4952673;28;20019;-68
2021/08/24 08:57:30;;;;;;;0.50;0.30;;;;;;;22.90;64.32;102294.34;4967136;28;20034;-67
2021/08/24 09:00:11;;;;;;;0.77;0.40;;;;;;;22.95;61.43;102294.69;4947831;28;20043;-70
2021/08/24 09:02:42;;;;;;;0.60;0.40;;;;;;;22.99;61.99;102303.72;4970483;28;20045;-70
2021/08/24 09:05:09;;;;;;;1.30;0.70;;;;;;;23.07;61.61;102290.72;4964716;28;20510;-70
2021/08/24 09:07:45;;;;;;;0.40;0.28;;;;;;;23.17;62.00;102282.41;4951652;28;20407;-70
2021/08/24 09:10:20;;;;;;;0.80;0.47;;;;;;;23.27;59.48;102289.81;4966969;28;20039;-70
2021/08/24 09:12:52;;;;;;;1.42;0.45;;;;;;;23.28;59.55;102288.66;4967130;28;20038;-70
2021/08/24 09:15:19;;;;;;;;;;;;;;;23.27;55.97;102294.53;4968389;28;20041;-69
2021/08/24 09:17:46;;;;;;;0.93;0.47;;;;;;;23.46;56.03;102290.53;4965937;28;19972;-70
2021/08/24 09:20:13;;;;;;;1.33;0.60;;;;;;;23.53;53.96;102307.00;4967529;28;20356;-70
2021/08/24 09:22:40;;;;;;;3.25;0.52;;;;;;;23.57;55.82;102294.00;4969607;28;20038;-70
2021/08/24 09:25:13;;;;;;;1.15;0.50;;;;;;;23.52;55.58;102291.69;4951913;28;20042;-70
2021/08/24 09:27:58;;;;;;;0.90;0.47;;;;;;;23.54;55.32;102297.56;4939254;28;20062;-68
2021/08/24 09:30:24;;;;;;;2.78;0.50;;;;;;;23.60;55.57;102290.44;4968423;28;20053;-69
2021/08/24 09:32:50;;;;;;;1.70;0.52;;;;;;;23.70;55.38;102295.09;4964858;28;20480;-69
2021/08/24 09:35:33;;;;;;;1.58;0.52;;;;;;;23.75;53.97;102294.66;4965661;28;20399;-70
2021/08/24 09:38:01;;;;;;;0.75;0.60;;;;;;;23.67;53.93;102287.66;4965660;28;20156;-68
2021/08/24 09:41:00;;;;;;;1.75;0.63;;;;;;;23.62;53.17;102290.81;4965715;28;20117;-68
2021/08/24 09:43:37;;;;;;;0.75;0.40;;;;;;;23.62;53.32;102296.31;4966846;28;20041;-68
2021/08/24 09:46:28;;;;;;;1.83;0.68;;;;;;;23.67;54.04;102290.41;4938725;28;20057;-68
2021/08/24 09:49:00;;;;;;;1.80;0.80;;;;;;;23.75;56.16;102297.41;4965935;28;20178;-68
2021/08/24 09:51:29;;;;;;;1.13;0.50;;;;;;;23.81;56.55;102298.56;4969268;28;20039;-70
2021/08/24 09:53:59;;;;;;;1.73;0.60;;;;;;;23.83;54.93;102296.16;4970253;28;20376;-70
2021/08/24 09:56:27;;;;;;;1.37;0.70;;;;;;;23.90;55.15;102291.41;4969148;28;20039;-70
2021/08/24 09:58:54;;;;;;;2.10;0.60;;;;;;;24.07;56.65;102297.97;4939095;28;20392;-70
2021/08/24 10:01:20;;;;;;;3.38;0.75;;;;;;;24.17;56.26;102288.84;4966924;28;20043;-70
2021/08/24 10:04:02;;;;;;;1.35;0.80;;;;;;;24.32;54.70;102287.50;4969131;28;20070;-70
2021/08/24 10:06:31;;;;;;;0.90;0.50;;;;;;;24.43;52.96;102293.69;4967920;28;20035;-70
2021/08/24 10:09:30;;;;;;;1.40;0.52;;;;;;;24.42;52.41;102297.63;4970853;28;20033;-70
2021/08/24 10:12:26;;;;;;;1.85;0.90;;;;;;;24.46;51.95;102292.88;4961702;28;20492;-70
2021/08/24 10:14:53;;;;;;;0.70;0.45;;;;;;;24.45;52.77;102288.53;4973260;28;20038;-70
2021/08/24 10:17:27;;;;;;;0.85;0.60;;;;;;;24.42;52.83;102288.56;4957860;28;20058;-70
2021/08/24 10:19:56;;;;;;;2.60;1.00;;;;;;;24.32;52.86;102273.72;4967831;28;20125;-70
2021/08/24 10:22:33;;;;;;;1.65;0.90;;;;;;;24.42;52.99;102288.56;4972815;28;20070;-69
2021/08/24 10:25:06;;;;;;;1.15;0.60;;;;;;;24.51;53.21;102286.91;4971657;28;20142;-67
2021/08/24 10:27:55;;;;;;;1.80;0.82;;;;;;;24.50;51.12;102279.84;4967759;28;20033;-69
2021/08/24 10:30:43;;;;;;;1.80;0.70;;;;;;;24.46;51.20;102270.81;4969937;28;20058;-69
2021/08/24 10:33:27;;;;;;;2.25;0.80;;;;;;;24.55;51.52;102279.38;4953366;28;20043;-69
2021/08/24 10:35:58;;;;;;;2.17;0.93;;;;;;;24.43;52.02;102281.91;4972655;28;20044;-69
2021/08/24 10:38:55;;;;;;;1.30;0.63;;;;;;;24.22;52.11;102273.81;4973630;28;20035;-69
2021/08/24 10:41:43;;;;;;;1.50;0.63;;;;;;;24.21;53.08;102273.06;4971008;28;20039;-69
2021/08/24 10:44:27;;;;;;;1.75;0.73;;;;;;;24.11;52.15;102268.44;4961371;28;20114;-69
2021/08/24 10:47:03;;;;;;;1.90;0.68;;;;;;;24.03;54.10;102267.72;4967297;28;20043;-69
2021/08/24 10:49:30;;;;;;;1.30;0.68;;;;;;;23.97;53.68;102263.81;4958603;28;20126;-69
2021/08/24 10:52:04;;;;;;;1.10;0.70;;;;;;;24.13;53.14;102257.78;4965383;28;20043;-69
2021/08/24 10:54:51;;;;;;;2.08;0.68;;;;;;;24.27;51.42;102257.66;4957649;28;20385;-69
2021/08/24 10:57:26;;;;;;;0.82;0.70;;;;;;;24.29;50.71;102266.28;4973429;28;20027;-67
2021/08/24 11:00:32;;;;;;;0.80;0.50;;;;;;;24.34;49.14;102260.31;4942254;28;20031;-69
2021/08/24 11:03:19;;;;;;;1.25;0.60;;;;;;;24.52;50.55;102257.38;4912094;28;20049;-69
2021/08/24 11:05:55;;;;;;;1.63;0.60;;;;;;;24.66;49.65;102266.25;4971899;28;20105;-69
2021/08/24 11:08:20;;;;;;;1.48;0.80;;;;;;;24.76;49.96;102259.88;4970868;28;20035;-69
2021/08/24 11:11:05;;;;;;;1.70;0.90;;;;;;;24.82;48.85;102263.72;4973505;28;20527;-69
2021/08/24 11:14:03;;;;;;;1.35;0.63;;;;;;;24.87;48.58;102260.50;4965837;28;20085;-69
2021/08/24 11:16:40;;;;;;;1.40;0.70;;;;;;;24.96;48.16;102257.25;4971470;28;20046;-69
2021/08/24 11:19:09;;;;;;;1.83;0.57;;;;;;;24.90;49.45;102261.66;4972806;28;20110;-69
2021/08/24 11:21:46;;;;;;;2.63;0.77;;;;;;;24.88;50.12;102264.84;4973164;28;20551;-69
2021/08/24 11:24:23;;;;;;;0.73;0.45;;;;;;;25.05;49.74;102260.28;4945250;28;20129;-69
2021/08/24 11:27:09;;;;;;;0.80;0.52;;;;;;;25.23;48.83;102260.81;4965466;28;20073;-69
2021/08/24 11:29:42;;;;;;;1.38;0.80;;;;;;;25.26;48.51;102268.25;4973003;28;20551;-69
2021/08/24 11:32:25;;;;;;;1.27;0.63;;;;;;;25.30;47.71;102266.22;4968824;28;20043;-69
2021/08/24 11:35:09;;;;;;;1.92;0.70;;;;;;;25.33;46.28;102272.91;4962317;28;20416;-69
2021/08/24 11:37:50;;;;;;;0.85;0.47;;;;;;;25.41;47.80;102271.63;4972515;28;20071;-69
2021/08/24 11:40:40;;;;;;;1.15;0.60;;;;;;;25.30;46.17;102266.22;4967893;28;20038;-67
2021/08/24 11:43:12;;;;;;;1.60;0.70;;;;;;;25.42;45.91;102260.16;4968697;28;20113;-67